Time;durP1;ratioP1;P1;durP2;ratioP2;P2;SDS_P1;SDS_P2;PMS_P1;PMS_P2;Temp;Humidity;BMP_temperature;BMP_pressure;BME280_temperature;BME280_humidity;BME280_pressure;Samples;Min_cycle;Max_cycle;Signal;HPM_P1;HPM_P2
2022/05/08 00:03:09;;;;;;;26.00;15.40;;;;;;;8.42;69.92;100408.10;213275;1274;141892;-63
2022/05/08 00:08:12;;;;;;;24.10;15.20;;;;;;;8.39;69.85;100404.26;214335;1274;164572;-63
2022/05/08 00:13:16;;;;;;;26.30;15.70;;;;;;;8.33;70.20;100399.17;214197;1274;143555;-62
2022/05/08 00:18:20;;;;;;;26.90;15.10;;;;;;;8.32;70.46;100387.67;213975;1274;141843;-63
2022/05/08 00:23:22;;;;;;;16.60;13.30;;;;;;;8.33;70.84;100385.41;213252;1274;143121;-64
2022/05/08 00:28:25;;;;;;;14.20;11.50;;;;;;;8.26;70.85;100383.59;214167;1274;142278;-64
2022/05/08 00:33:27;;;;;;;18.60;12.80;;;;;;;8.19;71.16;100375.34;214118;1274;142396;-64
2022/05/08 00:38:31;;;;;;;21.60;14.50;;;;;;;8.16;71.19;100374.80;214674;1274;141875;-65
2022/05/08 00:43:38;;;;;;;19.40;14.00;;;;;;;8.19;71.61;100366.88;214012;1274;141778;-63
2022/05/08 00:48:41;;;;;;;;;;;;;;;8.17;71.71;100374.48;213908;1276;142493;-63
2022/05/08 00:53:48;;;;;;;20.10;14.20;;;;;;;8.22;72.32;100378.37;216294;1274;128106;-63
2022/05/08 00:58:52;;;;;;;23.60;14.50;;;;;;;8.31;72.51;100384.53;214745;1274;142286;-62
2022/05/08 01:03:55;;;;;;;21.70;16.60;;;;;;;8.35;72.27;100383.70;216083;1274;141180;-65
2022/05/08 01:08:58;;;;;;;16.80;12.20;;;;;;;8.37;72.56;100380.88;215293;1274;140876;-64
2022/05/08 01:14:00;;;;;;;21.80;12.10;;;;;;;8.30;71.68;100373.22;213512;1274;143879;-62
2022/05/08 01:19:03;;;;;;;19.40;12.70;;;;;;;8.14;71.85;100375.36;214528;1275;142612;-65
2022/05/08 01:24:08;;;;;;;20.60;12.80;;;;;;;8.03;72.38;100365.79;213656;1276;141943;-62
2022/05/08 01:29:10;;;;;;;18.40;14.00;;;;;;;8.00;72.53;100366.89;213829;1275;141806;-63
2022/05/08 01:34:13;;;;;;;27.20;15.50;;;;;;;8.03;72.72;100365.80;214511;1274;142783;-62
2022/05/08 01:39:16;;;;;;;18.00;11.90;;;;;;;8.08;72.73;100365.88;213689;1274;143114;-63
2022/05/08 01:44:18;;;;;;;24.30;16.10;;;;;;;8.02;72.94;100365.42;213291;1274;143726;-63
2022/05/08 01:49:21;;;;;;;15.60;12.90;;;;;;;8.02;73.22;100365.62;214910;1274;141330;-66
2022/05/08 01:54:24;;;;;;;18.40;13.60;;;;;;;8.02;73.75;100359.33;213669;1274;140927;-62
2022/05/08 01:59:26;;;;;;;20.30;15.40;;;;;;;7.99;73.50;100361.33;213609;1274;141721;-64
2022/05/08 02:04:29;;;;;;;21.70;13.10;;;;;;;8.07;73.79;100367.39;214358;1274;142148;-62
2022/05/08 02:09:31;;;;;;;16.70;12.60;;;;;;;8.13;73.81;100375.48;213638;1274;142136;-61
2022/05/08 02:14:34;;;;;;;20.50;15.70;;;;;;;8.14;73.96;100372.05;214575;1274;141293;-64
2022/05/08 02:19:36;;;;;;;17.70;11.50;;;;;;;8.19;73.99;100374.89;214675;1274;140502;-65
2022/05/08 02:24:39;;;;;;;30.40;15.10;;;;;;;8.22;74.28;100373.09;214515;1275;141975;-65
2022/05/08 02:29:41;;;;;;;12.80;10.70;;;;;;;8.20;74.11;100370.67;214541;1277;162278;-65
2022/05/08 02:34:44;;;;;;;16.10;13.20;;;;;;;8.16;73.93;100370.43;214331;1277;141718;-62
2022/05/08 02:39:47;;;;;;;26.00;16.00;;;;;;;8.14;74.32;100375.33;214909;1276;141754;-63
2022/05/08 02:44:50;;;;;;;21.00;16.50;;;;;;;8.22;74.29;100371.78;214878;1274;140446;-64
2022/05/08 02:49:53;;;;;;;22.40;16.30;;;;;;;8.36;74.51;100372.24;214947;1274;141016;-62
2022/05/08 02:54:56;;;;;;;18.30;14.80;;;;;;;8.45;74.40;100370.55;216149;1274;142400;-63
2022/05/08 03:00:05;;;;;;;19.70;14.80;;;;;;;8.58;74.64;100379.02;215837;1274;140769;-64
2022/05/08 03:05:08;;;;;;;18.90;14.60;;;;;;;8.68;74.87;100375.66;215926;1274;141718;-65
2022/05/08 03:10:12;;;;;;;26.10;17.60;;;;;;;8.76;74.94;100382.41;215994;1274;142303;-64
2022/05/08 03:15:16;;;;;;;17.90;15.20;;;;;;;8.84;74.98;100386.83;215169;1274;141794;-63
2022/05/08 03:20:18;;;;;;;28.00;16.80;;;;;;;8.91;74.85;100387.08;215080;1274;141740;-64
2022/05/08 03:25:21;;;;;;;25.70;17.40;;;;;;;8.95;74.90;100388.98;215077;1274;152590;-63
2022/05/08 03:30:25;;;;;;;19.90;16.40;;;;;;;8.96;74.84;100392.05;213827;1274;141695;-63
2022/05/08 03:35:29;;;;;;;20.00;13.80;;;;;;;9.01;74.92;100397.81;214359;1274;141565;-66
2022/05/08 03:40:33;;;;;;;21.10;14.90;;;;;;;9.06;75.23;100392.81;213982;1274;143200;-61
2022/05/08 03:45:36;;;;;;;21.90;14.60;;;;;;;9.10;75.36;100395.71;214184;1274;141795;-63
2022/05/08 03:50:38;;;;;;;25.00;14.10;;;;;;;9.12;75.44;100395.39;213750;1274;142258;-64
2022/05/08 03:55:42;;;;;;;22.80;16.30;;;;;;;9.12;75.13;100398.21;213155;1274;152681;-64
2022/05/08 04:00:45;;;;;;;23.50;16.60;;;;;;;9.13;75.03;100411.22;213520;1275;142926;-63
2022/05/08 04:05:49;;;;;;;21.40;15.00;;;;;;;9.19;75.54;100412.04;213775;1274;141174;-60
2022/05/08 04:10:51;;;;;;;29.80;17.30;;;;;;;9.30;75.78;100412.10;214006;1274;142544;-63
2022/05/08 04:21:16;;;;;;;24.00;17.20;;;;;;;9.46;75.66;100424.09;214118;1274;140550;-63
2022/05/08 04:26:19;;;;;;;21.00;16.30;;;;;;;9.58;75.91;100428.93;214327;1274;142761;-64
2022/05/08 04:31:23;;;;;;;27.60;18.40;;;;;;;9.73;75.82;100427.33;213193;1276;141031;-64
2022/05/08 04:36:27;;;;;;;21.60;15.30;;;;;;;9.91;76.08;100429.92;214763;1275;141763;-63
2022/05/08 04:41:31;;;;;;;26.40;17.90;;;;;;;10.10;76.08;100437.73;215484;1274;141009;-63
2022/05/08 04:46:34;;;;;;;29.50;18.50;;;;;;;10.26;75.82;100439.50;213736;1274;141819;-63
2022/05/08 04:51:37;;;;;;;28.90;20.00;;;;;;;10.43;75.63;100443.39;215939;1274;141877;-64
2022/05/08 04:56:41;;;;;;;30.10;16.70;;;;;;;10.59;75.47;100445.45;216017;1274;141060;-65
2022/05/08 05:01:44;;;;;;;24.00;16.90;;;;;;;10.76;75.17;100452.37;215592;1274;141735;-64
2022/05/08 05:06:47;;;;;;;28.00;17.90;;;;;;;10.92;75.43;100454.45;215118;1274;141467;-60
2022/05/08 05:11:51;;;;;;;24.20;15.20;;;;;;;11.11;75.18;100458.68;214197;1274;141157;-62
2022/05/08 05:16:54;;;;;;;27.50;17.40;;;;;;;11.26;75.06;100457.44;214770;1274;141981;-64
2022/05/08 05:21:56;;;;;;;30.50;17.70;;;;;;;11.45;75.43;100462.48;214615;1274;142510;-63
2022/05/08 05:27:01;;;;;;;17.90;14.60;;;;;;;11.63;74.93;100459.25;213566;1274;142220;-63
2022/05/08 05:32:04;;;;;;;25.00;17.80;;;;;;;11.74;75.03;100459.02;214228;1274;141919;-62
2022/05/08 05:37:08;;;;;;;21.80;14.60;;;;;;;11.96;75.08;100465.70;214191;1274;142007;-63
2022/05/08 05:42:11;;;;;;;21.50;13.90;;;;;;;12.19;74.95;100471.73;213396;1274;142239;-62
2022/05/08 05:52:37;;;;;;;14.50;11.90;;;;;;;12.60;74.04;100484.75;214034;1274;141681;-65
2022/05/08 05:57:41;;;;;;;15.60;12.70;;;;;;;12.79;74.44;100485.12;213237;1274;142744;-66
2022/05/08 06:02:45;;;;;;;17.30;11.50;;;;;;;13.04;73.86;100485.23;213688;1274;140627;-65
2022/05/08 06:07:49;;;;;;;77.30;21.40;;;;;;;13.30;73.67;100488.27;213025;1276;141200;-63
2022/05/08 06:12:51;;;;;;;16.60;10.70;;;;;;;13.62;73.40;100493.13;213273;1274;140791;-66
2022/05/08 06:17:55;;;;;;;13.60;9.80;;;;;;;13.90;73.09;100498.41;213488;1274;142142;-64
2022/05/08 06:22:58;;;;;;;12.50;9.30;;;;;;;14.13;72.62;100502.14;214137;1274;141649;-63
2022/05/08 06:28:01;;;;;;;7.50;6.80;;;;;;;14.28;72.17;100504.71;213065;1274;141345;-64
2022/05/08 06:33:03;;;;;;;9.10;7.80;;;;;;;14.40;71.78;100508.98;214904;1274;141380;-64
2022/05/08 06:38:13;;;;;;;13.70;9.60;;;;;;;14.55;71.62;100514.94;214297;1274;141972;-65
2022/05/08 06:43:15;;;;;;;9.10;8.10;;;;;;;14.77;71.41;100513.66;214438;1274;142987;-61
2022/05/08 06:48:19;;;;;;;11.90;9.40;;;;;;;15.14;71.00;100515.10;214256;1274;142070;-63
2022/05/08 06:53:21;;;;;;;13.00;8.60;;;;;;;15.56;70.36;100514.64;215538;1274;143855;-67
2022/05/08 06:58:27;;;;;;;11.40;9.00;;;;;;;16.08;69.47;100517.23;213224;1274;142172;-65
2022/05/08 07:03:29;;;;;;;11.10;8.80;;;;;;;16.66;68.85;100514.71;215546;1274;141932;-66
2022/05/08 07:08:33;;;;;;;11.00;9.00;;;;;;;16.95;67.71;100519.55;215695;1274;140988;-65
2022/05/08 07:13:38;;;;;;;9.50;8.50;;;;;;;16.99;66.70;100523.09;214914;1274;142089;-65
2022/05/08 07:18:43;;;;;;;10.60;9.10;;;;;;;17.28;66.26;100525.98;214314;1274;143611;-64
2022/05/08 07:23:48;;;;;;;10.60;8.60;;;;;;;17.81;65.55;100522.14;214892;1274;141302;-66
2022/05/08 07:28:57;;;;;;;13.70;9.50;;;;;;;18.06;64.65;100521.33;213749;1274;143161;-65
2022/05/08 07:39:24;;;;;;;13.20;10.30;;;;;;;18.48;63.61;100515.48;213731;1274;141985;-65
2022/05/08 07:44:27;;;;;;;12.80;8.80;;;;;;;18.48;62.95;100514.30;214752;1274;139997;-68
2022/05/08 07:49:31;;;;;;;9.40;7.50;;;;;;;18.33;62.45;100519.41;213414;1274;383498;-65
2022/05/08 07:54:35;;;;;;;6.10;5.60;;;;;;;18.21;62.26;100516.30;213804;1274;140654;-66
2022/05/08 07:59:37;;;;;;;9.20;7.10;;;;;;;18.11;62.06;100517.45;213051;1274;140123;-67
2022/05/08 08:04:41;;;;;;;6.50;5.10;;;;;;;18.13;62.07;100517.67;212931;1274;140859;-66
2022/05/08 08:09:43;;;;;;;9.50;6.30;;;;;;;18.16;61.63;100514.88;213791;1274;141930;-66
2022/05/08 08:14:47;;;;;;;8.30;5.40;;;;;;;18.18;61.09;100521.05;214499;1274;141661;-66
2022/05/08 08:19:51;;;;;;;6.70;5.20;;;;;;;18.24;61.00;100525.87;213532;1274;141449;-66
2022/05/08 08:24:57;;;;;;;8.20;5.60;;;;;;;18.43;60.87;100533.45;213702;1274;140234;-63
2022/05/08 08:30:03;;;;;;;5.40;4.60;;;;;;;18.66;60.45;100533.84;213385;1274;142538;-66
2022/05/08 08:35:13;;;;;;;5.50;5.00;;;;;;;18.95;60.08;100531.16;214257;1274;141329;-65
2022/05/08 08:40:22;;;;;;;5.40;4.90;;;;;;;19.09;59.38;100534.66;214188;1274;142170;-65
2022/05/08 08:50:58;;;;;;;6.00;5.20;;;;;;;19.05;59.07;100544.02;214791;1274;142145;-65
2022/05/08 08:56:06;;;;;;;6.70;6.00;;;;;;;18.95;58.94;100555.21;215860;1274;142341;-64
2022/05/08 09:01:14;;;;;;;4.60;4.00;;;;;;;19.00;58.87;100562.00;214843;1274;140702;-66
2022/05/08 09:06:21;;;;;;;4.60;4.20;;;;;;;19.26;58.81;100566.01;215156;1274;141130;-65
2022/05/08 09:11:33;;;;;;;5.90;4.70;;;;;;;19.68;58.09;100562.71;214354;1274;140724;-65
2022/05/08 09:16:54;;;;;;;6.60;4.30;;;;;;;20.09;57.87;100564.58;214954;1274;141179;-67
2022/05/08 09:22:00;;;;;;;4.40;4.00;;;;;;;20.33;57.25;100560.60;215156;1274;141911;-65
2022/05/08 09:27:14;;;;;;;3.70;3.30;;;;;;;20.46;56.77;100557.38;213495;1274;140870;-65
2022/05/08 09:32:35;;;;;;;5.70;3.70;;;;;;;20.43;56.16;100557.43;214337;1274;142153;-65
2022/05/08 09:37:53;;;;;;;4.40;4.00;;;;;;;20.50;56.03;100564.44;213704;1276;152865;-65
2022/05/08 09:42:56;;;;;;;3.40;3.10;;;;;;;21.05;56.20;100561.00;214341;1274;141298;-66
2022/05/08 09:48:02;;;;;;;4.90;3.50;;;;;;;21.22;54.98;100559.80;214050;1274;141045;-64
2022/05/08 09:53:06;;;;;;;2.90;2.70;;;;;;;20.95;54.47;100566.95;212962;1275;143740;-65
2022/05/08 09:58:13;;;;;;;7.70;3.70;;;;;;;21.09;54.12;100563.69;214091;1274;140567;-65
2022/05/08 10:03:22;;;;;;;5.00;3.70;;;;;;;21.40;53.82;100561.91;213867;1274;141700;-64
2022/05/08 10:08:30;;;;;;;3.50;3.30;;;;;;;21.61;53.63;100563.70;213832;1274;163599;-65
2022/05/08 10:14:04;;;;;;;4.80;3.20;;;;;;;21.75;52.97;100550.77;213353;1274;141259;-65
2022/05/08 10:19:21;;;;;;;2.60;2.40;;;;;;;21.95;52.75;100551.70;213214;1274;142780;-65
2022/05/08 10:24:30;;;;;;;2.80;2.60;;;;;;;22.10;51.97;100550.16;213873;1274;140734;-66
2022/05/08 10:29:39;;;;;;;2.10;1.90;;;;;;;22.13;51.22;100548.67;214480;1274;141641;-65
2022/05/08 10:34:44;;;;;;;1.90;1.80;;;;;;;22.20;50.68;100549.52;214286;1274;141646;-67
2022/05/08 10:39:51;;;;;;;3.40;2.50;;;;;;;22.32;50.41;100547.22;215808;1274;139702;-66
2022/05/08 10:44:57;;;;;;;2.80;2.60;;;;;;;22.46;50.25;100547.01;214042;1274;141825;-66
2022/05/08 10:50:03;;;;;;;2.40;2.20;;;;;;;22.54;49.81;100545.88;214497;1274;142110;-66
2022/05/08 10:55:14;;;;;;;2.50;2.20;;;;;;;22.63;49.03;100545.08;214841;1274;141147;-65
2022/05/08 11:00:27;;;;;;;5.00;2.40;;;;;;;22.62;48.90;100542.52;216082;1274;140440;-65
2022/05/08 11:05:36;;;;;;;4.10;2.40;;;;;;;22.33;48.17;100545.45;215813;1274;141322;-66
2022/05/08 11:10:43;;;;;;;2.60;2.40;;;;;;;21.66;48.24;100546.34;216088;1274;141294;-67
2022/05/08 11:15:48;;;;;;;7.00;3.30;;;;;;;21.69;48.58;100543.85;215066;1274;143836;-65
2022/05/08 11:20:59;;;;;;;4.40;2.60;;;;;;;22.00;48.79;100539.10;213915;1274;140018;-65
2022/05/08 11:26:09;;;;;;;2.90;2.20;;;;;;;22.24;48.35;100537.39;214670;1274;140639;-65
2022/05/08 11:31:15;;;;;;;3.00;2.70;;;;;;;22.04;47.80;100534.39;214714;1273;142348;-65
2022/05/08 11:36:38;;;;;;;;;;;;;;;21.80;47.61;100525.38;213549;1274;141600;-66
2022/05/08 11:41:49;;;;;;;3.60;3.00;;;;;;;21.62;47.83;100525.45;214280;1274;149196;-65
2022/05/08 11:46:57;;;;;;;2.40;2.20;;;;;;;21.68;48.43;100525.89;213241;1274;141702;-65
2022/05/08 11:52:04;;;;;;;3.40;2.70;;;;;;;21.66;48.30;100521.86;214767;1274;141069;-66
2022/05/08 11:57:19;;;;;;;4.70;3.70;;;;;;;22.13;48.67;100519.29;214236;1274;141256;-66
2022/05/08 12:02:46;;;;;;;3.10;2.90;;;;;;;22.62;48.39;100520.52;213636;1274;143312;-65
2022/05/08 12:07:51;;;;;;;3.80;3.00;;;;;;;22.46;47.86;100519.90;213249;1274;140418;-65
2022/05/08 12:13:05;;;;;;;6.30;3.30;;;;;;;22.21;48.13;100520.65;213546;1274;141015;-65
2022/05/08 12:18:08;;;;;;;5.10;3.70;;;;;;;22.31;47.97;100520.18;214451;1274;140878;-65
2022/05/08 12:23:15;;;;;;;7.40;3.50;;;;;;;22.47;47.88;100516.73;213470;1275;140011;-65
2022/05/08 12:28:22;;;;;;;5.00;4.40;;;;;;;22.77;47.68;100512.10;214300;1274;139987;-65
2022/05/08 12:33:24;;;;;;;5.00;3.90;;;;;;;22.89;47.10;100508.16;214919;1274;141279;-64
2022/05/08 12:38:28;;;;;;;4.10;3.20;;;;;;;23.17;47.05;100507.71;214207;1274;139541;-64
2022/05/08 12:43:31;;;;;;;3.50;3.10;;;;;;;23.34;46.48;100505.17;213981;1274;140301;-63
2022/05/08 12:48:34;;;;;;;2.80;2.60;;;;;;;23.60;46.19;100500.14;215873;1274;140783;-64
2022/05/08 12:53:36;;;;;;;2.70;2.60;;;;;;;23.46;45.20;100492.19;215820;1274;140489;-66
2022/05/08 13:04:03;;;;;;;3.90;3.20;;;;;;;22.99;45.46;100491.45;216022;1274;140087;-64
2022/05/08 13:09:06;;;;;;;7.30;3.20;;;;;;;22.87;45.56;100488.63;216153;1274;141633;-64
2022/05/08 13:14:09;;;;;;;11.20;3.40;;;;;;;22.67;45.38;100490.52;215439;1274;140723;-64
2022/05/08 13:19:13;;;;;;;3.60;2.80;;;;;;;22.29;45.68;100493.53;214287;1274;140849;-64
2022/05/08 13:24:16;;;;;;;3.20;2.20;;;;;;;22.20;45.84;100485.05;214389;1274;140688;-64
2022/05/08 13:29:20;;;;;;;3.30;3.10;;;;;;;22.21;45.80;100482.73;215148;1274;140998;-66
2022/05/08 13:34:28;;;;;;;10.90;2.60;;;;;;;22.32;46.03;100483.39;214075;1275;141351;-62
2022/05/08 13:39:32;;;;;;;4.40;2.10;;;;;;;22.33;45.48;100489.35;214754;1274;141618;-63
2022/05/08 13:44:34;;;;;;;2.10;1.90;;;;;;;22.27;44.88;100489.76;212761;1275;142972;-66
2022/05/08 13:49:38;;;;;;;5.00;2.30;;;;;;;22.12;44.90;100483.56;213296;1274;141116;-64
2022/05/08 13:54:43;;;;;;;5.60;4.30;;;;;;;22.08;44.95;100477.70;213747;1275;141758;-64
2022/05/08 13:59:46;;;;;;;1.80;1.60;;;;;;;21.96;45.01;100482.84;212994;1274;139904;-66
2022/05/08 14:04:49;;;;;;;3.20;2.00;;;;;;;21.64;45.03;100479.98;213680;1274;141503;-66
2022/05/08 14:09:55;;;;;;;2.20;2.00;;;;;;;21.32;45.17;100477.80;214143;1274;140284;-65
2022/05/08 14:14:59;;;;;;;2.20;1.90;;;;;;;21.18;45.63;100484.77;214770;1274;140367;-66
2022/05/08 14:20:03;;;;;;;7.90;3.80;;;;;;;21.13;45.76;100490.60;213437;1274;140881;-65
2022/05/08 14:25:08;;;;;;;4.10;1.90;;;;;;;21.14;45.57;100495.30;214390;1274;141821;-65
2022/05/08 14:30:12;;;;;;;10.50;1.80;;;;;;;21.06;45.38;100495.50;212908;1274;141592;-65
2022/05/08 14:40:40;;;;;;;5.20;2.50;;;;;;;20.75;45.26;100510.36;213879;1274;139632;-66
2022/05/08 14:45:44;;;;;;;13.80;6.00;;;;;;;20.61;45.15;100511.77;215038;1274;141417;-66
2022/05/08 14:50:47;;;;;;;1.30;1.20;;;;;;;20.51;45.17;100510.86;215968;1274;143461;-65
2022/05/08 14:55:51;;;;;;;1.40;1.10;;;;;;;20.52;45.34;100513.77;216004;1274;141342;-64
2022/05/08 15:00:56;;;;;;;4.90;1.60;;;;;;;20.55;45.28;100517.92;213850;1274;141139;-65
2022/05/08 15:06:04;;;;;;;3.80;1.10;;;;;;;20.47;44.94;100523.01;215815;1274;140623;-65
2022/05/08 15:11:09;;;;;;;1.80;1.30;;;;;;;20.24;45.11;100523.94;216037;1274;141086;-65
2022/05/08 15:16:12;;;;;;;1.90;1.60;;;;;;;20.07;45.21;100518.30;215850;1274;140281;-66
2022/05/08 15:21:17;;;;;;;2.60;1.30;;;;;;;20.17;45.33;100515.65;215695;1274;140111;-65
2022/05/08 15:26:21;;;;;;;4.00;1.20;;;;;;;20.12;44.77;100511.40;214932;1274;141824;-63
2022/05/08 15:31:27;;;;;;;3.00;1.40;;;;;;;19.97;44.58;100510.22;214144;1274;141765;-65
2022/05/08 15:36:32;;;;;;;1.40;1.30;;;;;;;19.80;44.83;100512.26;214647;1274;140940;-65
2022/05/08 15:41:37;;;;;;;1.60;1.50;;;;;;;19.77;45.09;100514.48;214483;1274;140335;-66
2022/05/08 15:46:42;;;;;;;1.70;1.50;;;;;;;19.72;45.08;100515.63;214571;1274;140953;-66
2022/05/08 15:51:45;;;;;;;5.30;3.60;;;;;;;19.62;45.14;100517.55;213887;1274;139954;-65
2022/05/08 15:56:48;;;;;;;2.20;1.40;;;;;;;19.59;45.21;100517.73;213749;1275;142046;-66
2022/05/08 16:01:52;;;;;;;3.20;2.20;;;;;;;19.34;45.44;100518.36;213456;1274;141546;-65
2022/05/08 16:06:56;;;;;;;1.70;1.50;;;;;;;19.08;45.85;100522.52;215033;1274;139698;-65
2022/05/08 16:12:00;;;;;;;3.40;1.60;;;;;;;19.05;45.93;100519.53;214682;1274;139933;-65
2022/05/08 16:27:50;;;;;;;5.40;1.90;;;;;;;19.06;46.76;100519.48;214196;1274;142218;-65
2022/05/08 16:32:54;;;;;;;3.80;1.80;;;;;;;19.07;46.52;100523.48;214714;1274;141205;-66
2022/05/08 16:37:57;;;;;;;1.70;1.60;;;;;;;19.01;46.46;100526.13;214622;1274;141273;-66
2022/05/08 16:43:00;;;;;;;2.90;1.70;;;;;;;19.04;46.26;100526.89;214252;1274;140818;-65
2022/05/08 16:48:06;;;;;;;1.80;1.40;;;;;;;19.10;46.18;100530.93;215529;1274;141380;-66
2022/05/08 16:53:11;;;;;;;2.20;1.80;;;;;;;19.12;46.08;100535.27;215788;1274;210530;-67
2022/05/08 16:58:16;;;;;;;2.90;2.20;;;;;;;19.07;45.97;100538.23;215767;1273;140663;-65
2022/05/08 17:03:20;;;;;;;2.20;1.90;;;;;;;18.92;46.26;100538.57;215922;1274;140181;-65
2022/05/08 17:08:26;;;;;;;4.40;1.90;;;;;;;18.77;46.37;100542.18;215653;1274;141889;-67
2022/05/08 17:13:34;;;;;;;3.50;1.70;;;;;;;18.66;46.66;100540.45;215090;1274;140183;-65
2022/05/08 17:18:38;;;;;;;4.00;1.70;;;;;;;18.58;46.92;100540.16;213935;1274;141463;-66
2022/05/08 17:23:46;;;;;;;3.20;1.70;;;;;;;18.47;47.22;100544.16;213133;1274;140790;-67
2022/05/08 17:28:58;;;;;;;25.30;5.40;;;;;;;18.39;47.53;100544.77;214653;1274;141677;-67
2022/05/08 17:34:03;;;;;;;2.40;2.20;;;;;;;18.33;47.94;100545.20;214790;1274;140871;-66
2022/05/08 17:39:08;;;;;;;2.40;2.00;;;;;;;18.23;48.31;100554.20;213656;1274;141493;-65
2022/05/08 17:44:17;;;;;;;2.00;1.90;;;;;;;18.07;48.47;100557.38;214400;1274;141283;-62
2022/05/08 17:49:24;;;;;;;2.30;2.20;;;;;;;17.87;48.49;100558.10;213304;1274;141083;-66
2022/05/08 17:54:32;;;;;;;3.50;2.20;;;;;;;17.69;48.65;100564.05;213706;1274;140864;-65
2022/05/08 17:59:38;;;;;;;5.40;2.60;;;;;;;17.51;49.24;100568.23;213737;1274;143085;-65
2022/05/08 18:10:11;;;;;;;4.40;2.60;;;;;;;17.16;50.39;100575.48;214199;1274;140969;-67
2022/05/08 18:15:24;;;;;;;3.70;2.80;;;;;;;16.96;50.71;100578.17;214179;1274;141992;-65
2022/05/08 18:20:36;;;;;;;2.60;2.40;;;;;;;16.75;51.06;100583.58;214121;1274;141576;-66
2022/05/08 18:25:40;;;;;;;3.50;2.90;;;;;;;16.51;51.42;100592.71;213948;1274;141524;-67
2022/05/08 18:30:46;;;;;;;2.40;2.20;;;;;;;16.28;51.59;100600.75;214759;1274;141186;-67
2022/05/08 18:35:51;;;;;;;4.50;2.70;;;;;;;16.05;52.10;100604.08;214496;1274;142954;-67
2022/05/08 18:40:59;;;;;;;;;;;;;;;15.82;52.19;100609.84;213849;1274;162184;-65
2022/05/08 18:46:05;;;;;;;3.90;2.70;;;;;;;15.51;52.83;100616.95;214537;1274;128197;-67
2022/05/08 18:51:07;;;;;;;10.20;4.30;;;;;;;15.26;53.63;100620.63;216294;1274;142178;-67
2022/05/08 18:56:10;;;;;;;9.80;3.40;;;;;;;15.01;53.99;100624.50;215941;1276;139681;-68
2022/05/08 19:01:13;;;;;;;3.10;2.80;;;;;;;14.75;54.49;100634.40;215712;1274;140119;-68
2022/05/08 19:06:16;;;;;;;4.00;3.40;;;;;;;14.53;54.93;100642.19;215594;1274;141798;-67
2022/05/08 19:11:20;;;;;;;5.00;3.70;;;;;;;14.32;55.59;100647.53;216098;1274;141569;-67
2022/05/08 19:16:24;;;;;;;15.60;5.60;;;;;;;14.11;55.83;100651.11;215144;1274;140245;-67
2022/05/08 19:21:27;;;;;;;17.80;11.10;;;;;;;13.91;56.29;100653.20;214504;1274;141935;-66
2022/05/08 19:26:29;;;;;;;6.90;3.40;;;;;;;13.67;56.76;100660.21;214421;1274;142656;-65
2022/05/08 19:42:21;;;;;;;6.90;3.80;;;;;;;13.05;58.84;100668.23;214201;1274;141698;-68
2022/05/08 19:47:27;;;;;;;6.10;3.90;;;;;;;12.83;59.00;100670.95;214838;1275;346123;-65
2022/05/08 19:52:31;;;;;;;8.60;3.80;;;;;;;12.52;59.17;100676.53;214085;1274;142340;-67
2022/05/08 19:57:35;;;;;;;7.70;4.60;;;;;;;12.34;60.00;100677.94;213337;1274;142087;-65
2022/05/08 20:02:41;;;;;;;4.50;3.80;;;;;;;12.26;60.74;100684.11;213695;1274;141982;-66
2022/05/08 20:07:46;;;;;;;6.50;4.70;;;;;;;12.18;60.66;100687.52;214102;1274;142120;-66
2022/05/08 20:12:50;;;;;;;3.40;3.10;;;;;;;12.02;61.17;100693.04;213724;1274;142053;-67
2022/05/08 20:17:55;;;;;;;7.00;3.90;;;;;;;11.75;61.44;100693.36;214491;1276;141237;-66
2022/05/08 20:22:59;;;;;;;5.10;3.60;;;;;;;11.44;62.01;100696.72;214010;1276;152242;-66
2022/05/08 20:28:03;;;;;;;7.40;3.70;;;;;;;11.38;62.86;100699.27;213539;1274;140821;-67
2022/05/08 20:33:06;;;;;;;6.40;4.80;;;;;;;11.36;63.17;100701.88;214403;1274;141018;-66
2022/05/08 20:38:10;;;;;;;26.30;9.00;;;;;;;11.26;63.30;100717.23;215306;1274;141589;-68
2022/05/08 20:43:14;;;;;;;11.30;6.40;;;;;;;11.17;63.92;100737.98;214229;1274;141573;-67
2022/05/08 20:48:18;;;;;;;9.30;5.70;;;;;;;11.18;64.06;100751.05;215305;1274;141417;-66
2022/05/08 20:53:22;;;;;;;9.80;5.90;;;;;;;11.31;64.12;100752.83;215457;1274;140635;-67
2022/05/08 20:58:27;;;;;;;6.90;5.20;;;;;;;11.44;63.48;100760.92;216042;1275;140538;-67
2022/05/08 21:03:30;;;;;;;6.00;4.10;;;;;;;11.57;63.20;100764.70;216096;1274;140736;-67
2022/05/08 21:08:33;;;;;;;6.70;4.00;;;;;;;11.68;62.61;100764.93;215357;1274;139968;-66
2022/05/08 21:13:36;;;;;;;8.80;3.50;;;;;;;11.78;62.06;100770.11;215880;1276;140088;-67
2022/05/08 21:18:40;;;;;;;7.20;3.40;;;;;;;11.87;61.72;100773.60;214060;1276;141283;-67
2022/05/08 21:23:43;;;;;;;5.80;3.20;;;;;;;11.88;61.37;100777.16;214197;1274;139539;-67
2022/05/08 21:28:49;;;;;;;5.60;3.70;;;;;;;11.85;60.83;100779.53;213588;1274;141742;-66
2022/05/08 21:33:53;;;;;;;6.30;2.80;;;;;;;11.82;60.45;100782.96;214767;1274;139850;-66
2022/05/08 21:38:56;;;;;;;3.30;2.70;;;;;;;11.78;59.91;100791.53;214075;1274;140754;-66
2022/05/08 21:44:01;;;;;;;7.60;3.90;;;;;;;11.71;59.86;100800.71;213564;1274;140052;-67
2022/05/08 21:49:05;;;;;;;10.40;3.60;;;;;;;11.62;59.48;100803.29;214561;1274;140066;-66
2022/05/08 21:54:08;;;;;;;12.80;3.90;;;;;;;11.51;59.55;100809.23;213432;1274;141685;-67
2022/05/08 21:59:11;;;;;;;6.00;3.50;;;;;;;11.39;59.47;100815.20;214015;1274;140437;-65
2022/05/08 22:04:13;;;;;;;5.30;3.30;;;;;;;11.26;59.57;100820.90;214123;1274;140522;-68
2022/05/08 22:09:16;;;;;;;7.40;3.40;;;;;;;11.13;59.67;100825.67;214730;1274;140432;-66
2022/05/08 22:14:20;;;;;;;4.60;2.70;;;;;;;10.99;59.87;100833.25;213940;1274;140930;-66
2022/05/08 22:19:26;;;;;;;4.30;3.30;;;;;;;10.86;59.70;100835.02;214090;1274;141093;-66
2022/05/08 22:24:31;;;;;;;9.00;3.50;;;;;;;10.76;60.08;100836.59;214535;1272;140539;-66
2022/05/08 22:29:33;;;;;;;6.10;3.40;;;;;;;10.65;60.23;100837.79;214399;1272;141251;-66
2022/05/08 22:34:36;;;;;;;7.50;2.90;;;;;;;10.56;60.31;100841.44;213882;1274;142761;-66
2022/05/08 22:39:39;;;;;;;7.90;3.10;;;;;;;10.50;60.24;100844.55;214423;1274;141557;-66
2022/05/08 22:44:43;;;;;;;8.10;3.50;;;;;;;10.45;60.16;100848.70;213711;1274;142452;-65
2022/05/08 22:49:46;;;;;;;9.50;2.90;;;;;;;10.39;60.17;100850.92;215419;1274;142495;-67
2022/05/08 22:54:48;;;;;;;4.30;3.10;;;;;;;10.33;60.10;100853.94;216065;1274;140784;-67
2022/05/08 22:59:50;;;;;;;8.10;2.80;;;;;;;10.28;60.12;100857.30;215826;1274;141470;-68
2022/05/08 23:04:54;;;;;;;5.60;2.70;;;;;;;10.23;60.10;100859.25;215721;1274;141420;-66
2022/05/08 23:09:57;;;;;;;9.70;4.30;;;;;;;10.16;60.02;100859.79;213966;1274;141140;-66
2022/05/08 23:20:24;;;;;;;4.70;2.70;;;;;;;9.96;59.83;100868.15;214144;1274;142157;-67
2022/05/08 23:25:31;;;;;;;3.70;2.50;;;;;;;9.86;59.91;100871.08;215066;1274;142360;-65
2022/05/08 23:30:37;;;;;;;4.70;2.60;;;;;;;9.80;59.99;100876.48;214275;1274;141186;-67
2022/05/08 23:35:41;;;;;;;5.50;3.00;;;;;;;9.71;59.96;100878.47;214966;1274;150444;-66
2022/05/08 23:40:45;;;;;;;11.20;4.50;;;;;;;9.62;59.91;100875.73;214550;1274;141954;-65
2022/05/08 23:45:49;;;;;;;3.20;2.30;;;;;;;9.56;59.97;100874.85;214791;1274;141735;-65
2022/05/08 23:51:46;;;;;;;5.40;3.70;;;;;;;9.50;60.34;100869.45;213324;1274;141838;-66
2022/05/08 23:56:23;;;;;;;11.40;3.50;;;;;;;9.46;60.27;100873.27;213819;1274;211169;-66
